Time;durP1;ratioP1;P1;durP2;ratioP2;P2;SDS_P1;SDS_P2;PMS_P1;PMS_P2;Temp;Humidity;BMP_temperature;BMP_pressure;BME280_temperature;BME280_humidity;BME280_pressure;Samples;Min_cycle;Max_cycle;Signal;HPM_P1;HPM_P2
2020/12/15 00:00:35;;;;;;;6.25;2.97;;;6.40;56.00;;;;;;5035683;28;20496;-73
2020/12/15 00:03:01;;;;;;;6.25;3.10;;;6.40;55.80;;;;;;5017830;28;20036;-74
2020/12/15 00:05:26;;;;;;;6.07;2.97;;;6.40;57.00;;;;;;5019534;28;20073;-74
2020/12/15 00:07:55;;;;;;;7.05;3.47;;;6.30;57.60;;;;;;5018410;28;20087;-80
2020/12/15 00:10:21;;;;;;;5.43;2.72;;;6.40;58.40;;;;;;5017354;28;20394;-76
2020/12/15 00:12:46;;;;;;;3.20;2.00;;;6.40;58.10;;;;;;5035345;28;20034;-74
2020/12/15 00:15:12;;;;;;;3.97;2.60;;;6.40;58.00;;;;;;5017802;28;20025;-74
2020/12/15 00:17:37;;;;;;;2.83;2.10;;;6.50;57.40;;;;;;5017913;28;20474;-75
2020/12/15 00:20:07;;;;;;;4.88;2.38;;;6.40;57.70;;;;;;5017421;28;20030;-74
2020/12/15 00:22:35;;;;;;;4.15;2.25;;;6.40;58.30;;;;;;5017794;28;20025;-74
2020/12/15 00:25:00;;;;;;;3.08;1.67;;;6.30;58.60;;;;;;5017557;28;20571;-74
2020/12/15 00:27:26;;;;;;;2.53;1.60;;;6.20;58.70;;;;;;5001258;28;20042;-73
2020/12/15 00:29:52;;;;;;;4.65;2.15;;;6.30;58.90;;;;;;5035132;28;20022;-73
2020/12/15 00:32:17;;;;;;;3.13;2.25;;;6.20;59.20;;;;;;5017454;28;20025;-73
2020/12/15 00:34:43;;;;;;;4.70;2.60;;;6.20;59.60;;;;;;5016230;28;20063;-73
2020/12/15 00:37:09;;;;;;;7.45;2.08;;;6.20;60.00;;;;;;5017097;28;20069;-73
2020/12/15 00:39:34;;;;;;;4.50;2.65;;;6.20;60.50;;;;;;5017189;28;20025;-73
2020/12/15 00:42:00;;;;;;;3.38;1.90;;;6.20;60.90;;;;;;5017370;28;20037;-73
2020/12/15 00:44:25;;;;;;;5.97;2.70;;;6.20;61.30;;;;;;5034746;28;20060;-73
2020/12/15 00:46:51;;;;;;;3.88;2.10;;;6.10;61.80;;;;;;5017153;28;20171;-73
2020/12/15 00:49:17;;;;;;;3.63;2.25;;;6.00;62.20;;;;;;5016973;28;20025;-73
2020/12/15 00:51:45;;;;;;;5.25;2.83;;;6.00;62.30;;;;;;5019256;28;20033;-73
2020/12/15 00:54:12;;;;;;;5.18;2.78;;;6.00;61.90;;;;;;5035156;28;20056;-73
2020/12/15 00:56:40;;;;;;;7.40;3.67;;;6.10;61.80;;;;;;5017627;28;20029;-73
2020/12/15 00:59:06;;;;;;;10.27;3.42;;;6.10;61.70;;;;;;5017303;28;20036;-73
2020/12/15 01:01:31;;;;;;;6.03;3.00;;;6.20;61.60;;;;;;5017100;28;20021;-72
2020/12/15 01:03:57;;;;;;;3.80;1.92;;;6.20;61.20;;;;;;5017034;28;20073;-72
2020/12/15 01:06:23;;;;;;;4.60;2.33;;;6.20;61.50;;;;;;5016574;28;20068;-73
2020/12/15 01:08:49;;;;;;;2.33;1.83;;;6.20;61.90;;;;;;5016982;28;20033;-73
2020/12/15 01:11:14;;;;;;;3.90;2.20;;;6.20;61.90;;;;;;5016700;28;20556;-73
2020/12/15 01:13:40;;;;;;;4.22;2.58;;;6.20;62.50;;;;;;5016643;28;20112;-73
2020/12/15 01:16:06;;;;;;;4.90;2.00;;;6.20;62.60;;;;;;5016739;28;20026;-74
2020/12/15 01:18:31;;;;;;;2.35;1.83;;;6.20;62.60;;;;;;5034462;28;20121;-73
2020/12/15 01:20:57;;;;;;;2.10;1.67;;;6.20;62.40;;;;;;5016492;28;20455;-73
2020/12/15 01:23:23;;;;;;;3.67;1.90;;;6.20;62.30;;;;;;5016427;28;20525;-73
2020/12/15 01:25:48;;;;;;;2.95;1.85;;;6.30;62.50;;;;;;5016703;28;20076;-73
2020/12/15 01:28:15;;;;;;;3.90;2.10;;;6.30;62.50;;;;;;5016566;28;20366;-73
2020/12/15 01:30:41;;;;;;;5.43;3.00;;;6.30;62.70;;;;;;5016248;28;20041;-74
2020/12/15 01:33:07;;;;;;;4.55;2.42;;;6.30;62.80;;;;;;5016468;28;20037;-73
2020/12/15 01:35:32;;;;;;;4.80;2.15;;;6.30;62.70;;;;;;5016480;28;20385;-73
2020/12/15 01:37:58;;;;;;;3.13;1.52;;;6.40;62.40;;;;;;5033664;28;20429;-73
2020/12/15 01:40:24;;;;;;;2.38;1.33;;;6.40;62.40;;;;;;5016306;28;20120;-73
2020/12/15 01:42:49;;;;;;;3.38;1.55;;;6.40;62.50;;;;;;5034002;28;20072;-73
2020/12/15 01:45:15;;;;;;;3.85;2.20;;;6.40;62.80;;;;;;5016212;28;20032;-73
2020/12/15 01:47:41;;;;;;;3.90;1.90;;;6.40;62.90;;;;;;5015895;28;20044;-73
2020/12/15 01:50:07;;;;;;;3.45;2.20;;;6.50;63.30;;;;;;5016069;28;20474;-73
2020/12/15 01:52:33;;;;;;;7.05;1.98;;;6.50;63.30;;;;;;5016131;28;20037;-73
2020/12/15 01:55:00;;;;;;;4.45;2.05;;;6.50;63.40;;;;;;5015878;28;20021;-73
2020/12/15 01:57:26;;;;;;;3.10;1.70;;;6.50;63.50;;;;;;5015932;28;20029;-73
2020/12/15 01:59:52;;;;;;;4.35;2.15;;;6.50;63.60;;;;;;5016114;28;20021;-73
2020/12/15 02:02:19;;;;;;;4.18;2.03;;;6.50;63.90;;;;;;5016880;28;20026;-73
2020/12/15 02:04:46;;;;;;;3.38;1.75;;;6.50;64.30;;;;;;5019093;28;20039;-73
2020/12/15 02:07:14;;;;;;;5.22;2.00;;;6.50;64.40;;;;;;5033014;28;20493;-74
2020/12/15 02:09:39;;;;;;;3.22;2.00;;;6.50;64.30;;;;;;5015624;28;20036;-73
2020/12/15 02:12:05;;;;;;;1.38;0.80;;;6.40;64.20;;;;;;5015404;28;20022;-73
2020/12/15 02:14:31;;;;;;;2.33;1.30;;;6.60;63.20;;;;;;5033564;28;20044;-73
2020/12/15 02:16:57;;;;;;;2.10;1.35;;;6.70;63.20;;;;;;5015635;28;20389;-73
2020/12/15 02:19:23;;;;;;;4.75;1.10;;;6.70;62.50;;;;;;5015481;28;20026;-73
2020/12/15 02:21:57;;;;;;;3.13;1.50;;;6.90;62.00;;;;;;4999221;28;20036;-73
2020/12/15 02:24:24;;;;;;;2.35;1.30;;;6.90;61.70;;;;;;5015716;28;20021;-73
2020/12/15 02:26:51;;;;;;;3.28;1.63;;;6.90;61.60;;;;;;5015363;28;20037;-73
2020/12/15 02:29:17;;;;;;;3.22;1.52;;;7.00;61.40;;;;;;5015484;28;20025;-73
2020/12/15 02:31:44;;;;;;;1.90;1.20;;;7.10;61.20;;;;;;5033192;28;20078;-73
2020/12/15 02:34:10;;;;;;;1.95;1.17;;;7.20;60.90;;;;;;5033211;28;20036;-73
2020/12/15 02:36:35;;;;;;;2.83;1.30;;;7.20;60.80;;;;;;5015383;28;20026;-73
2020/12/15 02:39:12;;;;;;;1.42;0.98;;;7.20;60.70;;;;;;5015455;28;20066;-73
2020/12/15 02:41:38;;;;;;;1.90;1.30;;;7.30;60.70;;;;;;5015512;28;20032;-74
2020/12/15 02:44:06;;;;;;;3.63;1.60;;;7.20;60.80;;;;;;5015391;28;20421;-73
2020/12/15 02:46:31;;;;;;;3.90;2.05;;;7.20;61.10;;;;;;5015574;28;20075;-73
2020/12/15 02:48:57;;;;;;;5.45;2.00;;;7.10;61.60;;;;;;5015398;28;20481;-73
2020/12/15 02:51:24;;;;;;;4.03;2.10;;;7.10;62.20;;;;;;5032790;28;20112;-73
2020/12/15 02:53:51;;;;;;;4.20;2.22;;;7.00;62.60;;;;;;5015310;28;20049;-74
2020/12/15 02:56:24;;;;;;;3.05;1.80;;;6.90;63.10;;;;;;5015245;28;20025;-73
2020/12/15 02:58:50;;;;;;;4.07;1.90;;;6.90;63.40;;;;;;5017001;28;20037;-73
2020/12/15 03:01:17;;;;;;;2.67;1.70;;;6.90;63.70;;;;;;5019367;28;20029;-73
2020/12/15 03:03:43;;;;;;;3.33;1.85;;;6.90;63.70;;;;;;5019691;28;20079;-73
2020/12/15 03:06:08;;;;;;;2.42;1.38;;;6.90;63.70;;;;;;5021790;28;20026;-73
2020/12/15 03:08:34;;;;;;;3.35;2.00;;;6.80;64.80;;;;;;5022709;28;20124;-73
2020/12/15 03:11:01;;;;;;;1.60;1.30;;;6.80;64.20;;;;;;5022100;28;20071;-73
2020/12/15 03:13:27;;;;;;;2.05;1.20;;;6.70;64.50;;;;;;5021292;28;20030;-73
2020/12/15 03:15:53;;;;;;;2.38;1.60;;;6.80;64.50;;;;;;5022168;28;20382;-73
2020/12/15 03:18:18;;;;;;;2.05;1.17;;;6.80;64.50;;;;;;5042211;28;20025;-73
2020/12/15 03:20:47;;;;;;;3.08;1.38;;;6.80;65.10;;;;;;5041398;28;20033;-74
2020/12/15 03:23:17;;;;;;;2.28;1.40;;;6.80;66.20;;;;;;5037410;28;20022;-75
2020/12/15 03:25:43;;;;;;;2.38;1.10;;;6.80;66.40;;;;;;5019685;28;20026;-73
2020/12/15 03:28:09;;;;;;;2.45;1.35;;;6.80;66.60;;;;;;5003049;28;20029;-79
2020/12/15 03:30:35;;;;;;;2.10;1.15;;;6.80;66.60;;;;;;5037750;28;20532;-75
2020/12/15 03:33:01;;;;;;;3.25;1.25;;;6.90;66.80;;;;;;5037500;28;20037;-75
2020/12/15 03:35:27;;;;;;;1.05;0.80;;;6.80;66.70;;;;;;5019061;28;20144;-77
2020/12/15 03:37:56;;;;;;;2.85;1.35;;;6.90;66.50;;;;;;5036266;28;20050;-73
2020/12/15 03:40:23;;;;;;;4.03;1.55;;;6.90;66.10;;;;;;5018842;28;20049;-74
2020/12/15 03:42:49;;;;;;;3.28;1.88;;;6.90;65.70;;;;;;5018658;28;20021;-74
2020/12/15 03:45:15;;;;;;;2.67;1.73;;;6.90;65.20;;;;;;5018376;28;20025;-73
2020/12/15 03:47:41;;;;;;;5.30;2.17;;;6.90;65.40;;;;;;5018574;28;20088;-74
2020/12/15 03:50:09;;;;;;;4.47;2.20;;;6.90;65.50;;;;;;5018332;28;20107;-75
2020/12/15 03:52:37;;;;;;;4.68;2.17;;;6.90;65.80;;;;;;5018522;28;20032;-74
2020/12/15 03:55:07;;;;;;;2.78;1.60;;;6.80;66.40;;;;;;5018171;28;20021;-74
2020/12/15 03:57:32;;;;;;;4.45;2.00;;;6.70;66.90;;;;;;5037170;28;20056;-73
2020/12/15 03:59:58;;;;;;;3.03;1.73;;;6.70;67.20;;;;;;5022235;28;20029;-74
2020/12/15 04:02:24;;;;;;;3.08;1.70;;;6.70;67.50;;;;;;5022438;28;20568;-73
2020/12/15 04:04:51;;;;;;;2.20;1.15;;;6.70;67.70;;;;;;5022092;28;20061;-74
2020/12/15 04:07:17;;;;;;;2.50;1.30;;;6.70;67.40;;;;;;5020755;28;20036;-73
2020/12/15 04:09:44;;;;;;;1.42;1.20;;;6.70;67.10;;;;;;5018506;28;20493;-74
2020/12/15 04:12:11;;;;;;;2.05;1.08;;;6.70;66.90;;;;;;5018128;28;20112;-73
2020/12/15 04:14:38;;;;;;;2.38;1.40;;;6.90;66.00;;;;;;5018155;28;20108;-73
2020/12/15 04:17:04;;;;;;;2.13;1.13;;;6.90;65.60;;;;;;5017912;28;20074;-73
2020/12/15 04:19:29;;;;;;;1.63;0.63;;;6.80;65.80;;;;;;5018030;28;20469;-73
2020/12/15 04:21:55;;;;;;;1.88;1.15;;;6.90;65.70;;;;;;5018365;28;20029;-73
2020/12/15 04:24:20;;;;;;;2.60;1.40;;;7.00;66.40;;;;;;5021226;28;20025;-73
2020/12/15 04:26:46;;;;;;;2.92;1.38;;;6.90;67.50;;;;;;5017642;28;20040;-73
2020/12/15 04:29:12;;;;;;;4.30;1.95;;;6.80;68.00;;;;;;5017956;28;20026;-74
2020/12/15 04:31:37;;;;;;;2.35;1.42;;;6.80;68.30;;;;;;5017437;28;20029;-73
2020/12/15 04:34:04;;;;;;;1.73;1.20;;;6.80;68.50;;;;;;5035385;28;20025;-74
2020/12/15 04:36:29;;;;;;;3.50;1.60;;;6.80;68.70;;;;;;5017511;28;20029;-76
2020/12/15 04:38:55;;;;;;;2.90;1.10;;;6.90;69.00;;;;;;5017230;28;20473;-73
2020/12/15 04:41:20;;;;;;;2.33;1.30;;;6.90;69.00;;;;;;5017443;28;20030;-74
2020/12/15 04:43:47;;;;;;;2.97;1.30;;;6.90;69.10;;;;;;5017107;28;20018;-74
2020/12/15 04:46:18;;;;;;;3.67;2.10;;;7.00;69.00;;;;;;5034782;28;20485;-74
2020/12/15 04:48:58;;;;;;;5.35;1.85;;;6.90;68.80;;;;;;5017468;28;20049;-73
2020/12/15 04:51:27;;;;;;;2.42;1.70;;;6.90;67.60;;;;;;5017344;28;20029;-73
2020/12/15 04:53:54;;;;;;;4.90;2.00;;;6.90;67.20;;;;;;5017028;28;20026;-73
2020/12/15 04:56:28;;;;;;;3.25;1.70;;;6.90;67.20;;;;;;5016908;28;20021;-73
2020/12/15 04:58:59;;;;;;;5.30;2.70;;;6.90;67.30;;;;;;5016993;28;20021;-74
2020/12/15 05:01:26;;;;;;;3.20;2.28;;;6.90;67.30;;;;;;5017077;28;20470;-73
2020/12/15 05:03:52;;;;;;;6.82;2.75;;;6.90;67.40;;;;;;5016773;28;20026;-72
2020/12/15 05:06:27;;;;;;;3.80;2.28;;;6.90;67.50;;;;;;5016571;28;20504;-74
2020/12/15 05:08:54;;;;;;;4.22;2.42;;;6.90;67.70;;;;;;5012360;28;20041;-74
2020/12/15 05:11:34;;;;;;;3.80;2.15;;;6.90;67.80;;;;;;5034565;28;20030;-73
2020/12/15 05:14:00;;;;;;;5.65;3.03;;;6.80;67.90;;;;;;5016515;28;20025;-74
2020/12/15 05:16:36;;;;;;;4.72;2.88;;;6.90;68.20;;;;;;5016726;28;20026;-74
2020/12/15 05:19:05;;;;;;;4.80;2.58;;;6.80;68.30;;;;;;5016624;28;20163;-73
2020/12/15 05:21:31;;;;;;;3.80;1.40;;;6.80;68.50;;;;;;5015886;28;20048;-73
2020/12/15 05:23:56;;;;;;;2.65;1.83;;;6.80;68.70;;;;;;5034360;28;20453;-73
2020/12/15 05:26:25;;;;;;;2.75;1.80;;;6.80;68.90;;;;;;5034382;28;20107;-73
2020/12/15 05:29:08;;;;;;;4.15;2.20;;;6.80;69.00;;;;;;5016608;28;20400;-73
2020/12/15 05:31:40;;;;;;;3.65;2.42;;;6.80;69.10;;;;;;5016382;28;20032;-73
2020/12/15 05:34:10;;;;;;;5.70;3.25;;;6.70;69.30;;;;;;5000315;28;20032;-73
2020/12/15 05:36:47;;;;;;;5.47;3.30;;;6.60;69.90;;;;;;5033959;28;20049;-73
2020/12/15 05:39:13;;;;;;;9.25;5.63;;;6.60;70.20;;;;;;5016420;28;20025;-73
2020/12/15 05:41:39;;;;;;;12.85;7.00;;;6.60;70.40;;;;;;5016516;28;20500;-73
2020/12/15 05:44:05;;;;;;;10.43;6.72;;;6.60;70.70;;;;;;5016250;28;20380;-73
2020/12/15 05:46:31;;;;;;;3.95;2.30;;;6.60;71.00;;;;;;5016033;28;20124;-73
2020/12/15 05:49:06;;;;;;;3.78;1.88;;;6.50;70.80;;;;;;5016339;28;20113;-73
2020/12/15 05:51:42;;;;;;;;;;;6.50;70.60;;;;;;5016671;28;20060;-73
2020/12/15 05:54:12;;;;;;;2.80;2.03;;;6.50;70.60;;;;;;5050898;28;19905;-73
2020/12/15 05:56:39;;;;;;;4.38;2.25;;;6.50;70.80;;;;;;5011935;28;20048;-73
2020/12/15 05:59:18;;;;;;;4.65;1.70;;;6.40;71.80;;;;;;5016194;28;20065;-73
2020/12/15 06:02:02;;;;;;;2.55;1.40;;;6.40;70.90;;;;;;5038893;28;20044;-72
2020/12/15 06:04:28;;;;;;;3.97;1.80;;;6.40;70.60;;;;;;5016699;28;20025;-73
2020/12/15 06:06:54;;;;;;;2.03;1.63;;;6.50;70.60;;;;;;5044488;28;20041;-73
2020/12/15 06:09:19;;;;;;;5.40;1.92;;;6.50;70.60;;;;;;5022547;28;20022;-73
2020/12/15 06:11:46;;;;;;;5.10;2.75;;;6.50;70.80;;;;;;5021500;28;20096;-74
2020/12/15 06:14:13;;;;;;;7.18;3.92;;;6.50;71.10;;;;;;5020517;28;20030;-74
2020/12/15 06:16:39;;;;;;;5.00;2.88;;;6.40;72.40;;;;;;5023309;28;20137;-73
2020/12/15 06:19:10;;;;;;;6.65;3.35;;;6.40;73.20;;;;;;5023921;28;20027;-74
2020/12/15 06:21:39;;;;;;;8.48;3.42;;;6.40;73.30;;;;;;5023160;28;20029;-75
2020/12/15 06:24:05;;;;;;;4.30;2.10;;;6.40;73.60;;;;;;5006818;28;20528;-74
2020/12/15 06:26:33;;;;;;;5.95;2.53;;;6.40;72.90;;;;;;5025420;28;20034;-74
2020/12/15 06:29:01;;;;;;;12.10;2.78;;;6.40;71.70;;;;;;5026646;28;20037;-74
2020/12/15 06:31:27;;;;;;;6.75;2.90;;;6.50;71.20;;;;;;5025795;28;20032;-74
2020/12/15 06:34:02;;;;;;;8.57;2.90;;;6.50;71.20;;;;;;5021203;28;20030;-74
2020/12/15 06:36:32;;;;;;;7.93;2.97;;;6.50;71.20;;;;;;5022192;28;20022;-74
2020/12/15 06:39:12;;;;;;;4.78;2.97;;;6.40;71.30;;;;;;5021501;28;20075;-74
2020/12/15 06:41:38;;;;;;;5.72;2.90;;;6.50;71.20;;;;;;5020135;28;20457;-73
2020/12/15 06:44:05;;;;;;;6.85;3.20;;;6.50;71.00;;;;;;5038975;28;20026;-73
2020/12/15 06:46:32;;;;;;;7.03;2.92;;;6.50;70.90;;;;;;5021920;28;20080;-73
2020/12/15 06:48:57;;;;;;;8.80;3.78;;;6.50;70.80;;;;;;5017558;28;20428;-73
2020/12/15 06:51:31;;;;;;;8.32;3.70;;;6.50;71.60;;;;;;5016471;28;20033;-74
2020/12/15 06:54:04;;;;;;;7.95;3.97;;;6.60;70.70;;;;;;5017482;28;20424;-74
2020/12/15 06:56:32;;;;;;;8.65;3.03;;;6.60;70.70;;;;;;5034933;28;20037;-74
2020/12/15 06:59:03;;;;;;;7.47;4.10;;;6.50;70.70;;;;;;5016552;28;20025;-74
2020/12/15 07:01:30;;;;;;;7.43;3.33;;;6.60;70.90;;;;;;5016563;28;20492;-74
2020/12/15 07:04:01;;;;;;;7.88;3.22;;;6.60;70.90;;;;;;5016271;28;20021;-74
2020/12/15 07:06:27;;;;;;;5.43;2.85;;;6.50;70.70;;;;;;5016044;28;20040;-74
2020/12/15 07:09:09;;;;;;;6.47;3.28;;;6.60;70.70;;;;;;5015731;28;20017;-73
2020/12/15 07:11:35;;;;;;;6.00;3.28;;;6.60;70.50;;;;;;5016242;28;20041;-74
2020/12/15 07:14:04;;;;;;;7.15;3.38;;;6.70;70.30;;;;;;5015900;28;20028;-74
2020/12/15 07:16:32;;;;;;;8.77;4.15;;;6.70;70.20;;;;;;5033233;28;20381;-72
2020/12/15 07:18:58;;;;;;;5.88;3.60;;;6.80;70.20;;;;;;5015418;28;20056;-74
2020/12/15 07:21:29;;;;;;;10.50;4.40;;;6.80;70.30;;;;;;4999254;28;20064;-73
2020/12/15 07:24:02;;;;;;;10.43;4.20;;;6.90;70.50;;;;;;5033118;28;20053;-73
2020/12/15 07:26:28;;;;;;;6.57;4.03;;;6.90;70.60;;;;;;5015004;28;20057;-74
2020/12/15 07:28:54;;;;;;;9.18;4.32;;;6.90;70.70;;;;;;5014927;28;20530;-73
2020/12/15 07:31:30;;;;;;;7.25;3.13;;;6.90;70.70;;;;;;5014807;28;20490;-74
2020/12/15 07:34:24;;;;;;;5.65;2.80;;;6.90;70.70;;;;;;5014862;28;20389;-74
2020/12/15 07:36:51;;;;;;;4.07;2.17;;;7.00;69.90;;;;;;4994783;28;20116;-73
2020/12/15 07:39:19;;;;;;;8.15;3.20;;;7.10;70.50;;;;;;5012114;28;20366;-75
2020/12/15 07:42:05;;;;;;;5.40;3.00;;;7.10;69.90;;;;;;5011837;28;20026;-74
2020/12/15 07:44:30;;;;;;;;;;;7.10;70.20;;;;;;5012747;28;20061;-75
2020/12/15 07:46:56;;;;;;;;;;;7.10;71.70;;;;;;5015190;28;19983;-75
2020/12/15 07:49:26;;;;;;;10.37;3.53;;;7.10;72.60;;;;;;5015417;28;19905;-75
2020/12/15 07:51:54;;;;;;;6.07;3.38;;;7.10;72.10;;;;;;4998880;28;20030;-75
2020/12/15 07:54:20;;;;;;;5.47;2.90;;;7.10;71.40;;;;;;5015130;28;20469;-74
2020/12/15 07:56:49;;;;;;;4.78;2.53;;;7.00;70.70;;;;;;5014725;28;20065;-74
2020/12/15 07:59:16;;;;;;;4.13;2.47;;;7.10;70.50;;;;;;5021418;23;20065;-74
2020/12/15 08:01:42;;;;;;;4.68;2.90;;;7.10;70.00;;;;;;5013311;28;20038;-73
2020/12/15 08:04:13;;;;;;;3.97;2.63;;;7.10;69.80;;;;;;5037350;23;20053;-77
2020/12/15 08:06:44;;;;;;;4.60;2.10;;;7.00;69.80;;;;;;5018038;28;20060;-75
2020/12/15 08:09:15;;;;;;;5.43;2.20;;;7.10;69.90;;;;;;5017771;28;20048;-74
2020/12/15 08:11:48;;;;;;;4.43;2.33;;;7.10;70.80;;;;;;5017920;28;20036;-75
2020/12/15 08:14:16;;;;;;;5.05;2.67;;;7.10;70.30;;;;;;5017520;28;20037;-76
2020/12/15 08:16:42;;;;;;;6.85;2.53;;;7.20;70.90;;;;;;5017707;28;20386;-79
2020/12/15 08:19:08;;;;;;;5.75;2.55;;;7.20;71.00;;;;;;5017663;28;20036;-74
2020/12/15 08:21:46;;;;;;;5.75;2.70;;;7.30;72.10;;;;;;5035487;28;20030;-74
2020/12/15 08:24:21;;;;;;;6.22;3.28;;;7.60;73.10;;;;;;5017747;28;20060;-75
2020/12/15 08:26:47;;;;;;;9.18;3.50;;;7.80;72.70;;;;;;5001732;28;20490;-75
2020/12/15 08:29:13;;;;;;;7.85;4.00;;;7.80;72.30;;;;;;5017475;28;20040;-75
2020/12/15 08:31:41;;;;;;;8.98;3.92;;;7.90;72.10;;;;;;5017638;28;20022;-74
2020/12/15 08:34:13;;;;;;;11.55;5.13;;;8.00;71.40;;;;;;5017517;28;20392;-73
2020/12/15 08:36:43;;;;;;;8.98;3.80;;;8.10;71.60;;;;;;5017167;28;20482;-73
2020/12/15 08:39:11;;;;;;;6.93;3.83;;;8.10;70.80;;;;;;5017235;28;20061;-76
2020/12/15 08:41:48;;;;;;;8.52;4.70;;;8.20;71.00;;;;;;5017406;28;20029;-73
2020/12/15 08:44:17;;;;;;;10.68;4.53;;;8.10;70.80;;;;;;5017139;28;20112;-73
2020/12/15 08:46:44;;;;;;;7.20;4.28;;;7.80;71.90;;;;;;5017106;28;20040;-73
2020/12/15 08:49:14;;;;;;;10.23;4.18;;;8.00;73.00;;;;;;5016755;28;20033;-73
2020/12/15 08:51:44;;;;;;;9.35;3.80;;;8.20;72.90;;;;;;5017202;28;20128;-73
2020/12/15 08:54:09;;;;;;;10.88;4.05;;;8.30;72.40;;;;;;5016798;28;20021;-73
2020/12/15 08:56:35;;;;;;;7.72;3.97;;;8.50;72.40;;;;;;5015836;28;20017;-74
2020/12/15 08:59:15;;;;;;;6.65;3.90;;;8.60;72.10;;;;;;5016815;28;20029;-74
2020/12/15 09:01:42;;;;;;;7.97;4.70;;;8.50;72.30;;;;;;5016762;28;20029;-73
2020/12/15 09:04:09;;;;;;;7.15;4.25;;;8.30;72.30;;;;;;5013493;28;20046;-73
2020/12/15 09:06:37;;;;;;;10.30;4.18;;;8.00;71.70;;;;;;5013507;28;20125;-73
2020/12/15 09:09:04;;;;;;;11.25;4.35;;;7.90;72.20;;;;;;5013225;28;20022;-73
2020/12/15 09:11:30;;;;;;;9.10;4.90;;;7.80;72.90;;;;;;5013334;28;20030;-73
2020/12/15 09:14:03;;;;;;;11.27;4.50;;;7.80;73.40;;;;;;5012960;28;20018;-73
2020/12/15 09:16:34;;;;;;;11.25;4.88;;;7.80;74.00;;;;;;5013222;28;20053;-73
2020/12/15 09:19:29;;;;;;;13.75;4.85;;;7.70;74.40;;;;;;5013109;28;20122;-72
2020/12/15 09:22:00;;;;;;;10.13;5.00;;;7.80;74.70;;;;;;5004998;28;20038;-72
2020/12/15 09:24:26;;;;;;;9.23;4.65;;;7.80;74.70;;;;;;5012166;28;20085;-73
2020/12/15 09:26:53;;;;;;;9.45;4.22;;;7.80;74.80;;;;;;5012219;28;20398;-72
2020/12/15 09:29:19;;;;;;;7.28;3.53;;;7.80;75.00;;;;;;5012867;28;20030;-74
2020/12/15 09:31:52;;;;;;;12.00;3.85;;;7.80;75.00;;;;;;5012815;28;20018;-73
2020/12/15 09:34:18;;;;;;;6.43;3.08;;;7.80;75.20;;;;;;5012822;28;20030;-74
2020/12/15 09:36:57;;;;;;;6.88;3.85;;;7.90;75.50;;;;;;5012612;28;20513;-73
2020/12/15 09:39:27;;;;;;;5.90;3.20;;;7.90;76.10;;;;;;4996667;28;20129;-73
2020/12/15 09:41:56;;;;;;;8.95;4.05;;;7.90;76.80;;;;;;5032408;28;20382;-73
2020/12/15 09:44:22;;;;;;;9.43;3.38;;;8.00;77.00;;;;;;5032163;28;20397;-72
2020/12/15 09:46:47;;;;;;;9.18;3.50;;;8.00;77.10;;;;;;5016439;28;20037;-73
2020/12/15 09:49:13;;;;;;;4.95;3.05;;;8.10;77.20;;;;;;5031774;28;20558;-72
2020/12/15 09:51:41;;;;;;;7.00;3.45;;;8.10;77.40;;;;;;5032246;28;20032;-73
2020/12/15 09:54:06;;;;;;;8.63;3.10;;;8.20;77.40;;;;;;5031974;28;20251;-73
2020/12/15 09:56:32;;;;;;;6.63;3.55;;;8.10;77.00;;;;;;5031867;28;20030;-73
2020/12/15 09:58:58;;;;;;;9.88;3.55;;;8.10;76.60;;;;;;5031893;28;20428;-73
2020/12/15 10:01:24;;;;;;;8.98;4.18;;;8.10;76.40;;;;;;5031823;28;20058;-73
2020/12/15 10:03:50;;;;;;;10.23;3.88;;;8.10;76.70;;;;;;5031847;28;20046;-76
2020/12/15 10:06:16;;;;;;;10.68;4.15;;;8.10;76.50;;;;;;5031100;28;20386;-74
2020/12/15 10:08:42;;;;;;;9.10;3.88;;;8.10;76.50;;;;;;5031848;28;20057;-73
2020/12/15 10:11:15;;;;;;;8.05;4.32;;;8.20;76.80;;;;;;5031458;28;20028;-74
2020/12/15 10:13:41;;;;;;;8.50;3.83;;;8.20;78.40;;;;;;5031762;28;20048;-74
2020/12/15 10:16:07;;;;;;;5.20;3.20;;;8.30;78.40;;;;;;5031784;28;20025;-74
2020/12/15 10:18:33;;;;;;;8.00;3.70;;;8.40;77.80;;;;;;5033018;28;20024;-73
2020/12/15 10:20:59;;;;;;;7.03;3.78;;;8.30;77.80;;;;;;5032114;28;20509;-74
2020/12/15 10:23:24;;;;;;;6.05;3.10;;;8.30;78.20;;;;;;5032116;28;20021;-74
2020/12/15 10:25:50;;;;;;;7.88;3.88;;;8.30;78.40;;;;;;5031864;28;20025;-74
2020/12/15 10:28:15;;;;;;;5.35;3.15;;;8.40;78.30;;;;;;5031883;28;20182;-74
2020/12/15 10:30:41;;;;;;;7.03;3.75;;;8.40;78.00;;;;;;5031761;28;20037;-73
2020/12/15 10:33:07;;;;;;;7.75;3.28;;;8.60;77.90;;;;;;5031072;28;20025;-73
2020/12/15 10:35:33;;;;;;;8.70;4.20;;;8.60;77.50;;;;;;5031179;28;20052;-73
2020/12/15 10:37:58;;;;;;;6.72;3.33;;;8.80;77.30;;;;;;5031451;28;20057;-74
2020/12/15 10:40:24;;;;;;;7.88;4.10;;;8.90;77.20;;;;;;5032979;28;20022;-76
2020/12/15 10:42:50;;;;;;;7.22;4.30;;;9.00;77.00;;;;;;5034185;28;20367;-76
2020/12/15 10:45:15;;;;;;;9.55;4.75;;;9.10;76.80;;;;;;5035607;28;20112;-74
2020/12/15 10:47:43;;;;;;;8.07;4.20;;;9.20;76.50;;;;;;5036020;28;20433;-74
2020/12/15 10:50:10;;;;;;;9.48;5.05;;;9.20;76.20;;;;;;5034275;28;20116;-73
2020/12/15 10:52:36;;;;;;;11.43;5.30;;;9.20;76.10;;;;;;5031409;28;20453;-74
2020/12/15 10:55:02;;;;;;;10.75;5.22;;;9.30;76.20;;;;;;5031376;28;20071;-74
2020/12/15 10:57:28;;;;;;;11.48;5.25;;;9.30;76.20;;;;;;5031542;28;20128;-75
2020/12/15 10:59:53;;;;;;;15.48;6.50;;;9.30;76.20;;;;;;5031198;28;20489;-74
2020/12/15 11:02:19;;;;;;;15.52;6.93;;;9.30;76.30;;;;;;5031134;28;20029;-74
2020/12/15 11:04:44;;;;;;;14.43;6.60;;;9.30;76.40;;;;;;5030965;28;20547;-74
2020/12/15 11:07:10;;;;;;;17.30;6.65;;;9.40;76.40;;;;;;5030993;28;20386;-74
2020/12/15 11:09:36;;;;;;;17.65;7.25;;;9.40;76.40;;;;;;5031147;28;20028;-74
2020/12/15 11:12:01;;;;;;;14.98;6.70;;;9.40;76.80;;;;;;5030715;28;20088;-73
2020/12/15 11:14:27;;;;;;;16.30;6.80;;;9.50;77.00;;;;;;5030916;28;20096;-73
2020/12/15 11:16:52;;;;;;;19.05;8.27;;;9.50;77.40;;;;;;5031094;28;20025;-75
2020/12/15 11:19:18;;;;;;;13.52;5.90;;;9.50;77.80;;;;;;5031809;28;20033;-73
2020/12/15 11:21:44;;;;;;;13.15;5.53;;;9.50;78.00;;;;;;5034933;28;20396;-73
2020/12/15 11:24:09;;;;;;;11.63;5.72;;;9.50;78.40;;;;;;5034682;28;20029;-75
2020/12/15 11:26:36;;;;;;;11.93;5.70;;;9.60;78.80;;;;;;5034710;28;20033;-73
2020/12/15 11:29:02;;;;;;;11.07;5.07;;;9.60;79.10;;;;;;5034383;28;20061;-73
2020/12/15 11:31:27;;;;;;;8.73;4.88;;;9.70;79.50;;;;;;5034796;28;20036;-73
2020/12/15 11:33:53;;;;;;;9.43;4.88;;;9.70;80.70;;;;;;5034706;28;20033;-74
2020/12/15 11:36:19;;;;;;;10.50;4.78;;;9.70;80.80;;;;;;5034693;28;20058;-74
2020/12/15 11:38:45;;;;;;;9.18;5.10;;;9.70;80.00;;;;;;5034477;28;20537;-74
2020/12/15 11:41:11;;;;;;;8.70;4.30;;;9.80;79.90;;;;;;5034153;28;20053;-74
2020/12/15 11:43:37;;;;;;;8.18;3.80;;;9.80;79.90;;;;;;5034316;28;20393;-74
2020/12/15 11:46:03;;;;;;;9.10;4.32;;;9.90;79.90;;;;;;5033575;28;20026;-73
2020/12/15 11:48:28;;;;;;;8.40;4.43;;;9.90;80.10;;;;;;5033679;28;20025;-74
2020/12/15 11:50:54;;;;;;;7.57;4.05;;;9.90;80.00;;;;;;5034554;28;20086;-74
2020/12/15 11:53:20;;;;;;;8.45;3.95;;;9.90;80.10;;;;;;5034122;28;20052;-75
2020/12/15 11:55:45;;;;;;;8.93;3.90;;;10.00;79.90;;;;;;5033146;28;20068;-74
2020/12/15 11:58:11;;;;;;;12.40;4.32;;;10.00;79.50;;;;;;5034490;28;20025;-73
2020/12/15 12:00:37;;;;;;;10.00;4.03;;;9.90;79.20;;;;;;5033495;28;20053;-75
2020/12/15 12:03:03;;;;;;;8.15;3.65;;;9.90;79.50;;;;;;5034931;28;20025;-74
2020/12/15 12:05:30;;;;;;;7.18;3.75;;;10.00;79.90;;;;;;5034915;28;20108;-73
2020/12/15 12:07:55;;;;;;;8.32;3.70;;;9.90;80.40;;;;;;5034660;28;20397;-74
2020/12/15 12:10:21;;;;;;;5.53;3.22;;;10.00;80.70;;;;;;5033800;28;20022;-73
2020/12/15 12:12:46;;;;;;;5.72;2.70;;;10.00;80.90;;;;;;5033395;28;20036;-74
2020/12/15 12:15:12;;;;;;;10.07;2.72;;;10.00;81.40;;;;;;5017006;28;20026;-73
2020/12/15 12:17:38;;;;;;;5.57;3.17;;;10.00;81.50;;;;;;5034678;28;20488;-73
2020/12/15 12:20:04;;;;;;;5.53;2.70;;;10.00;81.80;;;;;;5016655;28;20022;-73
2020/12/15 12:22:30;;;;;;;5.20;2.50;;;10.00;82.10;;;;;;5033065;28;20103;-74
2020/12/15 12:24:55;;;;;;;5.35;2.63;;;10.00;82.10;;;;;;5034953;28;20026;-77
2020/12/15 12:27:21;;;;;;;5.25;1.98;;;10.00;82.10;;;;;;5033649;28;20045;-73
2020/12/15 12:29:47;;;;;;;3.00;1.80;;;10.00;81.80;;;;;;5033622;28;20026;-73
2020/12/15 12:32:13;;;;;;;3.70;1.60;;;10.10;81.80;;;;;;5033897;28;20440;-75
2020/12/15 12:34:39;;;;;;;6.75;1.40;;;10.10;81.80;;;;;;5033476;28;20087;-74
2020/12/15 12:37:08;;;;;;;4.75;1.92;;;10.00;81.60;;;;;;5033558;28;20472;-74
2020/12/15 12:39:35;;;;;;;2.25;1.10;;;10.10;81.70;;;;;;5035187;28;20461;-73
2020/12/15 12:42:01;;;;;;;3.83;2.05;;;10.10;81.60;;;;;;5033300;28;20029;-73
2020/12/15 12:44:27;;;;;;;6.03;2.90;;;10.10;81.40;;;;;;5033157;28;20037;-74
2020/12/15 12:46:52;;;;;;;4.65;2.38;;;10.10;81.20;;;;;;5033266;28;20033;-74
2020/12/15 12:49:19;;;;;;;4.25;2.20;;;10.20;81.00;;;;;;5034535;28;20029;-73
2020/12/15 12:51:46;;;;;;;6.38;1.73;;;10.20;81.00;;;;;;5033078;28;20029;-73
2020/12/15 12:54:12;;;;;;;4.15;1.75;;;10.20;80.90;;;;;;5032921;28;20036;-73
2020/12/15 12:56:41;;;;;;;3.85;1.73;;;10.20;80.80;;;;;;5034637;28;20026;-73